Time;durP1;ratioP1;P1;durP2;ratioP2;P2;SDS_P1;SDS_P2;PMS_P1;PMS_P2;Temp;Humidity;BMP_temperature;BMP_pressure;BME280_temperature;BME280_humidity;BME280_pressure;Samples;Min_cycle;Max_cycle;Signal;HPM_P1;HPM_P2
2022/09/23 00:02:09;;;;;;;0.40;0.30;;;;;;;10.07;83.55;99341.13;5068901;28;20203;-60
2022/09/23 00:04:36;;;;;;;0.40;0.40;;;;;;;10.07;83.69;99330.09;5069574;28;20214;-60
2022/09/23 00:07:05;;;;;;;0.60;0.60;;;;;;;10.02;84.05;99335.50;5069576;28;20234;-59
2022/09/23 00:09:32;;;;;;;0.50;0.50;;;;;;;10.03;84.38;99339.66;5069619;28;20206;-59
2022/09/23 00:11:59;;;;;;;0.30;0.30;;;;;;;9.96;84.40;99335.91;5069165;28;20199;-60
2022/09/23 00:14:27;;;;;;;0.50;0.50;;;;;;;9.88;84.39;99335.56;5069265;28;20321;-60
2022/09/23 00:16:53;;;;;;;0.53;0.50;;;;;;;9.86;84.70;99332.28;5069211;28;20191;-59
2022/09/23 00:19:20;;;;;;;0.47;0.47;;;;;;;9.85;84.92;99336.59;5069060;28;20210;-60
2022/09/23 00:21:47;;;;;;;3.50;0.80;;;;;;;9.80;84.91;99327.59;5069295;28;20198;-59
2022/09/23 00:24:15;;;;;;;1.03;0.30;;;;;;;9.77;85.39;99322.69;5069149;28;20226;-60
2022/09/23 00:26:42;;;;;;;1.63;0.60;;;;;;;9.75;85.14;99322.81;5069055;28;20721;-59
2022/09/23 00:29:09;;;;;;;0.50;0.50;;;;;;;9.69;85.32;99331.69;5069340;28;20667;-60
2022/09/23 00:31:36;;;;;;;0.37;0.37;;;;;;;9.65;85.40;99320.00;5068815;28;20198;-59
2022/09/23 00:34:03;;;;;;;0.57;0.50;;;;;;;9.59;85.74;99315.31;5069446;28;20299;-59
2022/09/23 00:36:32;;;;;;;0.50;0.50;;;;;;;9.60;85.74;99316.97;5069009;28;20198;-59
2022/09/23 00:38:59;;;;;;;0.60;0.60;;;;;;;9.57;85.95;99309.50;5069117;28;20222;-59
2022/09/23 00:41:27;;;;;;;0.30;0.30;;;;;;;9.55;86.16;99313.06;5068884;28;20206;-59
2022/09/23 00:43:56;;;;;;;0.70;0.60;;;;;;;9.50;86.32;99321.00;5069006;28;20214;-59
2022/09/23 00:46:28;;;;;;;0.67;0.60;;;;;;;9.48;86.39;99316.00;5069200;28;20207;-59
2022/09/23 00:48:59;;;;;;;0.47;0.47;;;;;;;9.38;86.71;99312.41;5068969;28;20725;-59
2022/09/23 00:51:33;;;;;;;0.50;0.50;;;;;;;9.34;86.68;99313.53;5069049;28;20225;-59
2022/09/23 00:54:02;;;;;;;0.70;0.70;;;;;;;9.33;86.94;99308.50;5069247;28;20500;-59
2022/09/23 00:56:32;;;;;;;0.40;0.40;;;;;;;9.24;87.02;99303.06;5068716;28;20194;-59
2022/09/23 00:59:01;;;;;;;0.30;0.23;;;;;;;9.20;87.08;99299.06;5068992;28;20276;-59
2022/09/23 01:01:28;;;;;;;0.33;0.33;;;;;;;9.17;87.02;99301.81;5068606;28;20195;-59
2022/09/23 01:03:57;;;;;;;0.23;0.23;;;;;;;9.15;87.20;99301.09;5068705;28;20214;-59
2022/09/23 01:06:23;;;;;;;0.20;0.20;;;;;;;9.09;87.55;99304.03;5068812;28;20702;-59
2022/09/23 01:08:51;;;;;;;0.63;0.63;;;;;;;9.08;87.57;99299.84;5068792;28;20230;-59
2022/09/23 01:11:30;;;;;;;0.30;0.30;;;;;;;9.05;87.31;99297.50;5068643;28;20203;-59
2022/09/23 01:14:10;;;;;;;0.50;0.50;;;;;;;8.96;87.58;99295.50;5069514;28;20523;-59
2022/09/23 01:16:43;;;;;;;0.67;0.50;;;;;;;8.96;87.68;99287.84;5072340;28;20187;-59
2022/09/23 01:19:30;;;;;;;0.20;0.20;;;;;;;8.99;87.69;99295.34;5072340;28;20222;-59
2022/09/23 01:22:04;;;;;;;0.43;0.43;;;;;;;8.92;87.56;99299.16;5072172;28;20686;-59
2022/09/23 01:24:47;;;;;;;0.63;0.63;;;;;;;8.94;87.76;99294.78;5072347;28;20195;-59
2022/09/23 01:27:23;;;;;;;0.47;0.47;;;;;;;8.90;87.75;99298.44;5071954;28;20717;-59
2022/09/23 01:30:09;;;;;;;0.37;0.37;;;;;;;8.89;87.98;99305.25;5072313;28;20572;-59
2022/09/23 01:32:56;;;;;;;0.60;0.60;;;;;;;8.82;87.98;99304.03;5071925;28;20215;-59
2022/09/23 01:35:30;;;;;;;0.60;0.60;;;;;;;8.79;88.26;99315.22;5072374;28;20191;-59
2022/09/23 01:38:07;;;;;;;1.00;0.80;;;;;;;8.74;88.44;99307.03;5072127;28;20600;-59
2022/09/23 01:40:44;;;;;;;0.37;0.37;;;;;;;8.70;88.37;99305.59;5071949;28;20194;-59
2022/09/23 01:43:16;;;;;;;0.73;0.60;;;;;;;8.66;88.20;99305.84;5072295;28;20218;-59
2022/09/23 01:45:46;;;;;;;0.50;0.50;;;;;;;8.56;88.81;99303.06;5071840;28;20543;-59
2022/09/23 01:48:21;;;;;;;0.20;0.20;;;;;;;8.49;89.16;99299.22;5071677;28;20262;-59
2022/09/23 01:50:56;;;;;;;0.30;0.30;;;;;;;8.31;90.03;99294.28;5071698;28;20800;-59
2022/09/23 01:53:30;;;;;;;0.10;0.10;;;;;;;8.34;90.49;99294.09;5071819;28;20234;-59
2022/09/23 01:56:02;;;;;;;0.40;0.40;;;;;;;8.31;90.12;99299.38;5071713;28;20482;-59
2022/09/23 01:58:35;;;;;;;0.20;0.20;;;;;;;8.27;90.33;99295.41;5071946;28;20222;-59
2022/09/23 02:01:05;;;;;;;0.37;0.37;;;;;;;8.29;90.88;99295.28;5071877;28;20194;-59
2022/09/23 02:03:37;;;;;;;0.27;0.27;;;;;;;8.25;91.11;99302.28;5071468;28;20250;-59
2022/09/23 02:06:09;;;;;;;0.30;0.30;;;;;;;8.27;90.94;99303.03;5071857;28;20197;-59
2022/09/23 02:08:41;;;;;;;0.83;0.67;;;;;;;8.31;91.03;99303.66;5071502;28;20231;-59
2022/09/23 02:11:10;;;;;;;0.27;0.27;;;;;;;8.37;90.76;99309.22;5071516;28;20588;-59
2022/09/23 02:13:44;;;;;;;0.63;0.60;;;;;;;8.32;91.07;99306.13;5071384;28;20222;-59
2022/09/23 02:16:20;;;;;;;0.23;0.23;;;;;;;8.25;91.06;99309.94;5071345;28;20202;-59
2022/09/23 02:18:53;;;;;;;0.33;0.33;;;;;;;8.24;91.38;99308.31;5071244;28;20222;-59
2022/09/23 02:21:23;;;;;;;0.67;0.53;;;;;;;8.19;91.49;99304.41;5071237;28;20206;-59
2022/09/23 02:23:55;;;;;;;0.37;0.37;;;;;;;8.23;91.34;99305.84;5071566;28;20218;-54
2022/09/23 02:26:30;;;;;;;0.20;0.20;;;;;;;8.21;91.52;99308.50;5070797;28;20233;-54
2022/09/23 02:29:06;;;;;;;0.33;0.20;;;;;;;8.24;91.61;99308.31;5070973;28;20635;-59
2022/09/23 02:31:39;;;;;;;0.40;0.40;;;;;;;8.27;91.53;99295.41;5070879;28;20705;-59
2022/09/23 02:34:18;;;;;;;0.40;0.40;;;;;;;8.26;91.43;99298.88;5070895;28;20710;-59
2022/09/23 02:36:54;;;;;;;0.73;0.73;;;;;;;8.19;91.54;99295.03;5071097;28;20195;-59
2022/09/23 02:39:27;;;;;;;0.57;0.50;;;;;;;8.19;91.63;99297.56;5070892;28;20198;-59
2022/09/23 02:42:01;;;;;;;0.23;0.23;;;;;;;8.14;92.06;99297.00;5070702;28;20195;-59
2022/09/23 02:44:28;;;;;;;0.27;0.27;;;;;;;8.18;92.10;99295.13;5070828;28;20205;-59
2022/09/23 02:46:56;;;;;;;0.43;0.43;;;;;;;8.18;91.99;99293.41;5070616;28;20202;-54
2022/09/23 02:49:28;;;;;;;0.43;0.43;;;;;;;8.14;92.22;99295.31;5070689;28;20262;-59
2022/09/23 02:51:56;;;;;;;0.30;0.30;;;;;;;8.13;92.08;99295.38;5070261;28;20190;-59
2022/09/23 02:54:27;;;;;;;0.30;0.30;;;;;;;8.09;92.52;99299.03;5070676;28;20203;-59
2022/09/23 02:56:56;;;;;;;0.30;0.30;;;;;;;8.02;92.29;99305.38;5070387;28;20195;-59
2022/09/23 02:59:23;;;;;;;0.40;0.33;;;;;;;8.00;92.48;99304.63;5070476;28;20234;-54
2022/09/23 03:02:05;;;;;;;0.20;0.20;;;;;;;7.93;92.94;99309.28;5070309;28;20206;-59
2022/09/23 03:04:42;;;;;;;0.27;0.27;;;;;;;7.87;93.62;99314.72;5070556;28;20191;-59
2022/09/23 03:07:16;;;;;;;0.20;0.20;;;;;;;7.94;93.39;99310.91;5070300;28;20207;-54
2022/09/23 03:09:52;;;;;;;0.17;0.17;;;;;;;8.02;93.22;99311.28;5070318;28;20660;-59
2022/09/23 03:12:33;;;;;;;0.20;0.20;;;;;;;8.00;93.20;99319.91;5070083;28;20233;-59
2022/09/23 03:15:12;;;;;;;0.30;0.30;;;;;;;7.93;92.96;99319.47;5070187;28;20695;-59
2022/09/23 03:17:46;;;;;;;0.20;0.20;;;;;;;7.86;93.36;99319.00;5070000;28;20258;-59
2022/09/23 03:20:24;;;;;;;0.77;0.70;;;;;;;7.90;93.47;99324.72;5069937;28;20195;-59
2022/09/23 03:22:55;;;;;;;0.43;0.43;;;;;;;7.98;93.17;99322.56;5069833;28;20210;-59
2022/09/23 03:25:25;;;;;;;0.57;0.33;;;;;;;7.99;92.73;99323.38;5070001;28;20205;-59
2022/09/23 03:27:57;;;;;;;0.10;0.10;;;;;;;7.98;92.85;99329.38;5069899;28;20226;-59
2022/09/23 03:30:25;;;;;;;0.40;0.40;;;;;;;7.90;92.98;99322.19;5070174;28;20222;-59
2022/09/23 03:32:54;;;;;;;0.20;0.20;;;;;;;7.76;93.64;99330.59;5069588;28;20664;-54
2022/09/23 03:35:27;;;;;;;0.20;0.20;;;;;;;7.65;94.04;99333.75;5069829;28;20194;-59
2022/09/23 03:38:01;;;;;;;0.47;0.47;;;;;;;7.70;94.34;99326.66;5069237;28;20222;-54
2022/09/23 03:40:31;;;;;;;0.17;0.17;;;;;;;7.78;93.75;99327.97;5070043;28;20590;-59
2022/09/23 03:43:00;;;;;;;0.40;0.40;;;;;;;7.86;93.57;99329.19;5069791;28;20237;-54
2022/09/23 03:45:31;;;;;;;0.50;0.50;;;;;;;7.91;93.12;99322.09;5069736;28;20194;-54
2022/09/23 03:47:58;;;;;;;0.20;0.20;;;;;;;7.97;92.78;99327.72;5069671;28;20226;-59
2022/09/23 03:50:27;;;;;;;0.10;0.10;;;;;;;7.91;92.90;99329.75;5069644;28;20582;-59
2022/09/23 03:52:54;;;;;;;0.10;0.10;;;;;;;7.90;92.57;99335.72;5069554;28;20223;-59
2022/09/23 03:55:21;;;;;;;0.50;0.50;;;;;;;7.84;92.53;99330.97;5069529;28;20190;-59
2022/09/23 03:57:48;;;;;;;0.67;0.67;;;;;;;7.86;92.40;99338.56;5069665;28;20481;-54
2022/09/23 04:00:16;;;;;;;0.50;0.50;;;;;;;7.83;92.80;99326.00;5069585;28;20195;-54
2022/09/23 04:02:43;;;;;;;0.23;0.23;;;;;;;7.78;93.21;99326.25;5069308;28;20225;-54
2022/09/23 04:05:12;;;;;;;0.20;0.20;;;;;;;7.75;93.09;99330.69;5069580;28;20199;-59
2022/09/23 04:07:41;;;;;;;0.20;0.20;;;;;;;7.65;93.71;99325.28;5069072;28;20218;-54
2022/09/23 04:10:09;;;;;;;0.37;0.37;;;;;;;7.69;93.92;99331.88;5069382;28;20285;-59
2022/09/23 04:12:36;;;;;;;0.30;0.30;;;;;;;7.70;94.04;99323.31;5069128;28;20218;-59
2022/09/23 04:15:04;;;;;;;0.50;0.50;;;;;;;7.61;94.33;99323.84;5069564;28;20213;-59
2022/09/23 04:17:31;;;;;;;0.63;0.63;;;;;;;7.48;94.87;99329.63;5069228;28;20230;-59
2022/09/23 04:19:58;;;;;;;0.20;0.20;;;;;;;7.52;95.29;99334.53;5069164;28;20194;-54
2022/09/23 04:22:25;;;;;;;0.10;0.10;;;;;;;7.56;94.78;99320.72;5069181;28;20215;-59
2022/09/23 04:24:53;;;;;;;0.67;0.67;;;;;;;7.59;95.31;99330.72;5069297;28;20663;-59
2022/09/23 04:27:20;;;;;;;0.20;0.20;;;;;;;7.70;94.87;99329.22;5069054;28;20210;-59
2022/09/23 04:29:47;;;;;;;0.10;0.10;;;;;;;7.74;94.72;99340.06;5069231;28;20517;-59
2022/09/23 04:32:14;;;;;;;0.33;0.33;;;;;;;7.80;94.68;99334.63;5068969;28;20249;-59
2022/09/23 04:34:40;;;;;;;0.20;0.20;;;;;;;7.82;94.53;99340.44;5069334;28;20198;-59
2022/09/23 04:37:07;;;;;;;0.20;0.20;;;;;;;7.78;94.63;99346.59;5069195;28;20210;-54
2022/09/23 04:39:34;;;;;;;0.40;0.37;;;;;;;7.83;94.57;99354.00;5069177;28;20202;-54
2022/09/23 04:42:03;;;;;;;0.30;0.30;;;;;;;7.88;94.74;99365.56;5068885;28;20195;-58
2022/09/23 04:44:30;;;;;;;0.10;0.10;;;;;;;8.01;94.49;99367.41;5069161;28;20262;-59
2022/09/23 04:46:57;;;;;;;0.30;0.30;;;;;;;8.11;94.25;99371.03;5068986;28;20203;-59
2022/09/23 04:49:24;;;;;;;0.50;0.50;;;;;;;8.20;94.15;99378.16;5072156;28;20714;-59
2022/09/23 04:51:51;;;;;;;0.30;0.30;;;;;;;8.30;93.98;99368.28;5073188;28;20230;-59
2022/09/23 04:54:18;;;;;;;0.47;0.20;;;;;;;8.46;93.26;99373.31;5072867;28;20219;-59
2022/09/23 04:56:44;;;;;;;0.40;0.40;;;;;;;8.54;92.92;99376.22;5072749;28;20198;-59
2022/09/23 04:59:13;;;;;;;0.20;0.20;;;;;;;8.63;92.78;99375.69;5072623;28;20223;-59
2022/09/23 05:01:40;;;;;;;0.47;0.47;;;;;;;8.68;92.57;99385.59;5072642;28;20198;-59
2022/09/23 05:04:12;;;;;;;0.40;0.40;;;;;;;8.75;92.49;99390.22;5072782;28;20238;-54
2022/09/23 05:06:42;;;;;;;0.67;0.43;;;;;;;8.89;92.63;99388.59;5072723;28;20524;-54
2022/09/23 05:09:14;;;;;;;0.40;0.40;;;;;;;8.95;92.16;99388.22;5072612;28;20587;-59
2022/09/23 05:11:41;;;;;;;0.60;0.60;;;;;;;9.03;91.68;99388.56;5072472;28;20209;-59
2022/09/23 05:14:08;;;;;;;0.13;0.13;;;;;;;9.10;90.96;99383.91;5072446;28;20222;-54
2022/09/23 05:16:36;;;;;;;0.70;0.40;;;;;;;9.16;90.62;99392.03;5072594;28;20209;-59
2022/09/23 05:19:03;;;;;;;0.20;0.20;;;;;;;9.27;90.30;99388.78;5072264;28;20612;-59
2022/09/23 05:21:30;;;;;;;0.20;0.20;;;;;;;9.35;89.98;99388.34;5072397;28;20597;-59
2022/09/23 05:23:59;;;;;;;0.20;0.20;;;;;;;9.38;89.67;99377.94;5072142;28;20276;-59
2022/09/23 05:26:28;;;;;;;0.33;0.20;;;;;;;9.45;89.56;99379.16;5072043;28;20230;-58
2022/09/23 05:28:56;;;;;;;0.10;0.10;;;;;;;9.53;89.05;99376.97;5072201;28;20230;-59
2022/09/23 05:31:25;;;;;;;0.40;0.37;;;;;;;9.59;88.57;99375.75;5072202;28;20206;-59
2022/09/23 05:33:56;;;;;;;0.53;0.20;;;;;;;9.65;88.63;99376.16;5072072;28;20226;-59
2022/09/23 05:36:23;;;;;;;0.20;0.20;;;;;;;9.69;88.45;99377.63;5072024;28;20206;-59
2022/09/23 05:38:50;;;;;;;0.50;0.50;;;;;;;9.65;88.95;99386.38;5071906;28;20234;-59
2022/09/23 05:41:19;;;;;;;0.30;0.30;;;;;;;9.85;89.04;99387.66;5071906;28;20203;-59
2022/09/23 05:43:46;;;;;;;0.33;0.33;;;;;;;10.14;88.82;99393.44;5071780;28;20658;-59
2022/09/23 05:46:14;;;;;;;0.40;0.40;;;;;;;10.49;88.06;99399.72;5071983;28;20200;-59
2022/09/23 05:48:42;;;;;;;0.30;0.30;;;;;;;10.71;86.64;99404.22;5072099;28;20249;-59
2022/09/23 05:51:14;;;;;;;0.20;0.20;;;;;;;10.87;85.77;99399.69;5071817;28;20202;-59
2022/09/23 05:53:43;;;;;;;0.43;0.43;;;;;;;11.06;85.32;99397.50;5071715;28;20230;-59
2022/09/23 05:56:11;;;;;;;0.17;0.17;;;;;;;11.38;84.38;99404.69;5072045;28;20241;-58
2022/09/23 05:58:38;;;;;;;0.30;0.30;;;;;;;11.67;82.88;99401.81;5072026;28;20225;-59
2022/09/23 06:01:09;;;;;;;0.37;0.37;;;;;;;11.89;81.88;99406.22;5071052;28;20201;-59
2022/09/23 06:03:36;;;;;;;0.70;0.63;;;;;;;12.06;80.01;99405.00;5071523;28;20226;-59
2022/09/23 06:06:03;;;;;;;0.40;0.40;;;;;;;11.97;79.05;99414.97;5071657;28;20202;-60
2022/09/23 06:08:32;;;;;;;0.43;0.43;;;;;;;11.95;79.74;99409.13;5071337;28;20231;-60
2022/09/23 06:11:06;;;;;;;0.20;0.20;;;;;;;11.88;80.17;99410.53;5071508;28;20201;-60
2022/09/23 06:13:36;;;;;;;0.30;0.30;;;;;;;11.83;79.98;99412.56;5071803;28;20225;-60
2022/09/23 06:16:02;;;;;;;0.50;0.50;;;;;;;11.67;80.72;99409.50;5071376;28;20748;-60
2022/09/23 06:18:29;;;;;;;0.37;0.37;;;;;;;11.62;80.97;99414.13;5071457;28;20226;-60
2022/09/23 06:20:59;;;;;;;1.03;0.60;;;;;;;11.97;82.95;99409.84;5071153;28;20215;-60
2022/09/23 06:23:26;;;;;;;0.47;0.47;;;;;;;12.19;81.64;99408.31;5070938;28;20729;-60
2022/09/23 06:26:00;;;;;;;0.87;0.87;;;;;;;12.16;79.25;99413.66;5071141;28;20190;-60
2022/09/23 06:28:31;;;;;;;0.27;0.27;;;;;;;12.04;80.66;99414.53;5071225;28;20309;-60
2022/09/23 06:30:59;;;;;;;0.47;0.47;;;;;;;11.92;80.87;99417.06;5071043;28;20756;-60
2022/09/23 06:33:26;;;;;;;0.93;0.50;;;;;;;11.94;80.90;99415.19;5070794;28;20226;-60
2022/09/23 06:35:56;;;;;;;0.67;0.40;;;;;;;12.17;80.66;99418.66;5070971;28;20195;-59
2022/09/23 06:38:23;;;;;;;0.80;0.80;;;;;;;12.56;79.58;99415.78;5070763;28;20219;-60
2022/09/23 06:40:51;;;;;;;0.53;0.53;;;;;;;12.98;80.62;99427.13;5070887;28;20195;-59
2022/09/23 06:43:20;;;;;;;0.57;0.57;;;;;;;13.34;77.17;99428.63;5070736;28;20753;-60
2022/09/23 06:45:46;;;;;;;0.47;0.47;;;;;;;13.35;74.78;99430.25;5070818;28;20210;-60
2022/09/23 06:48:13;;;;;;;0.40;0.40;;;;;;;13.61;75.24;99429.13;5070610;28;20210;-60
2022/09/23 06:50:40;;;;;;;0.80;0.80;;;;;;;13.86;74.96;99439.09;5070763;28;20241;-60
2022/09/23 06:53:07;;;;;;;0.63;0.63;;;;;;;14.38;75.09;99442.56;5070611;28;20231;-60
2022/09/23 06:55:34;;;;;;;0.77;0.50;;;;;;;14.63;72.59;99441.41;5070832;28;20206;-60
2022/09/23 06:58:01;;;;;;;1.60;0.93;;;;;;;15.04;70.49;99449.13;5070556;28;20220;-60
2022/09/23 07:00:29;;;;;;;0.67;0.67;;;;;;;15.20;70.74;99452.03;5070392;28;20208;-60
2022/09/23 07:02:56;;;;;;;1.27;0.83;;;;;;;15.39;69.80;99451.28;5070183;28;20232;-61
2022/09/23 07:05:23;;;;;;;0.80;0.80;;;;;;;15.37;68.04;99466.06;5070396;28;20220;-60
2022/09/23 07:07:50;;;;;;;0.93;0.83;;;;;;;14.90;67.59;99461.44;5070235;28;20258;-60
2022/09/23 07:10:17;;;;;;;1.07;0.90;;;;;;;14.81;69.89;99466.53;5070692;28;20234;-60
2022/09/23 07:12:43;;;;;;;1.90;0.70;;;;;;;14.75;70.36;99467.88;5069323;28;20218;-60
2022/09/23 07:15:11;;;;;;;1.07;0.90;;;;;;;14.61;71.29;99465.63;5070177;28;20205;-60
2022/09/23 07:17:41;;;;;;;0.97;0.67;;;;;;;14.41;71.43;99469.81;5070102;28;20229;-60
2022/09/23 07:20:10;;;;;;;0.83;0.80;;;;;;;14.09;71.56;99468.09;5070206;28;20199;-61
2022/09/23 07:22:37;;;;;;;1.93;1.30;;;;;;;13.94;72.39;99466.75;5069927;28;20234;-60
2022/09/23 07:25:04;;;;;;;0.80;0.80;;;;;;;13.79;72.99;99469.63;5070051;28;20709;-61
2022/09/23 07:27:32;;;;;;;1.27;0.87;;;;;;;13.59;73.72;99478.09;5070173;28;20225;-61
2022/09/23 07:29:59;;;;;;;0.70;0.70;;;;;;;13.53;74.53;99463.16;5070189;28;20230;-60
2022/09/23 07:32:26;;;;;;;0.77;0.70;;;;;;;13.27;74.94;99468.56;5069648;28;20658;-61
2022/09/23 07:34:55;;;;;;;1.73;1.20;;;;;;;13.27;75.61;99468.56;5069781;28;20697;-61
2022/09/23 07:37:22;;;;;;;1.00;0.93;;;;;;;13.25;75.63;99465.28;5069834;28;20227;-60
2022/09/23 07:39:49;;;;;;;0.77;0.77;;;;;;;13.19;76.22;99468.28;5069669;28;20590;-60
2022/09/23 07:42:17;;;;;;;0.93;0.83;;;;;;;13.13;76.25;99471.34;5069684;28;20252;-60
2022/09/23 07:44:45;;;;;;;0.47;0.37;;;;;;;13.09;77.24;99472.53;5069691;28;20200;-60
2022/09/23 07:47:12;;;;;;;1.03;0.83;;;;;;;13.01;77.36;99477.41;5069532;28;20234;-60
2022/09/23 07:49:39;;;;;;;0.97;0.97;;;;;;;12.85;77.88;99478.56;5069911;28;20235;-60
2022/09/23 07:52:08;;;;;;;0.67;0.63;;;;;;;12.96;79.26;99484.63;5069143;28;20668;-60
2022/09/23 07:54:34;;;;;;;0.67;0.67;;;;;;;13.29;79.52;99481.25;5069870;28;20199;-60
2022/09/23 07:57:02;;;;;;;0.40;0.40;;;;;;;13.52;78.20;99477.72;5069479;28;20199;-60
2022/09/23 07:59:28;;;;;;;1.17;0.80;;;;;;;13.51;77.60;99480.44;5069468;28;20191;-60
2022/09/23 08:01:56;;;;;;;0.30;0.30;;;;;;;13.56;77.64;99475.75;5069477;28;20197;-60
2022/09/23 08:04:26;;;;;;;0.43;0.43;;;;;;;13.87;78.43;99475.88;5069395;28;20674;-60
2022/09/23 08:06:56;;;;;;;1.03;0.90;;;;;;;14.23;74.62;99477.28;5069230;28;20214;-60
2022/09/23 08:09:26;;;;;;;0.83;0.80;;;;;;;14.74;74.21;99478.28;5069243;28;20265;-60
2022/09/23 08:11:54;;;;;;;0.63;0.63;;;;;;;15.12;72.63;99475.06;5069474;28;20205;-60
2022/09/23 08:14:22;;;;;;;0.73;0.73;;;;;;;15.75;71.80;99475.63;5069547;28;20198;-60
2022/09/23 08:16:49;;;;;;;0.77;0.73;;;;;;;16.24;67.27;99473.06;5069479;28;20256;-60
2022/09/23 08:19:17;;;;;;;0.50;0.50;;;;;;;16.41;67.11;99485.25;5069274;28;20393;-60
2022/09/23 08:21:45;;;;;;;2.23;1.37;;;;;;;16.74;66.06;99483.13;5069382;28;20207;-60
2022/09/23 08:24:14;;;;;;;6.33;2.57;;;;;;;17.08;63.33;99478.28;5074555;28;20263;-60
2022/09/23 08:26:43;;;;;;;4.53;1.93;;;;;;;17.13;61.99;99475.25;5075895;28;20203;-61
2022/09/23 08:29:12;;;;;;;1.53;1.10;;;;;;;17.31;65.34;99478.72;5075931;28;20253;-60
2022/09/23 08:31:39;;;;;;;0.47;0.47;;;;;;;17.63;61.46;99472.28;5075784;28;20705;-60
2022/09/23 08:34:06;;;;;;;0.60;0.60;;;;;;;17.88;63.56;99474.16;5075623;28;20241;-61
2022/09/23 08:36:34;;;;;;;3.80;2.00;;;;;;;17.73;61.68;99477.38;5075979;28;20207;-60
2022/09/23 08:39:01;;;;;;;2.53;1.87;;;;;;;17.94;60.46;99477.09;5075991;28;20231;-60
2022/09/23 08:41:38;;;;;;;1.13;0.93;;;;;;;18.41;60.16;99472.44;5075596;28;20197;-59
2022/09/23 08:44:13;;;;;;;0.60;0.60;;;;;;;18.55;57.04;99478.84;5075922;28;20227;-60
2022/09/23 08:46:46;;;;;;;1.10;0.90;;;;;;;18.70;59.03;99477.34;5075908;28;20239;-60
2022/09/23 08:49:22;;;;;;;0.97;0.87;;;;;;;18.79;56.11;99470.44;5075548;28;20282;-61
2022/09/23 08:51:50;;;;;;;0.80;0.70;;;;;;;19.00;57.16;99467.50;5075703;28;20202;-61
2022/09/23 08:54:18;;;;;;;1.00;0.77;;;;;;;19.41;57.79;99459.84;5075766;28;20319;-61
2022/09/23 08:56:51;;;;;;;3.93;1.57;;;;;;;19.39;54.65;99464.38;5075815;28;20267;-62
2022/09/23 08:59:27;;;;;;;1.23;1.07;;;;;;;19.26;53.90;99459.66;5075556;28;20227;-62
2022/09/23 09:01:59;;;;;;;1.03;0.93;;;;;;;19.64;56.26;99458.25;5075567;28;20206;-61
2022/09/23 09:04:41;;;;;;;0.73;0.70;;;;;;;19.58;54.23;99451.13;5075558;28;20434;-61
2022/09/23 09:07:14;;;;;;;1.03;0.83;;;;;;;19.97;52.53;99470.47;5075542;28;20200;-61
2022/09/23 09:09:44;;;;;;;2.70;1.27;;;;;;;19.58;51.78;99466.69;5075567;28;20227;-62
2022/09/23 09:12:15;;;;;;;2.03;1.37;;;;;;;19.95;53.54;99462.84;5075315;28;20269;-61
2022/09/23 09:14:53;;;;;;;1.60;1.37;;;;;;;19.94;50.85;99465.63;5075530;28;20196;-61
2022/09/23 09:17:29;;;;;;;1.47;1.10;;;;;;;20.36;51.31;99449.84;5075459;28;20270;-61
2022/09/23 09:19:58;;;;;;;0.90;0.67;;;;;;;20.48;51.28;99448.53;5075389;28;20669;-55
2022/09/23 09:22:42;;;;;;;1.37;0.70;;;;;;;20.31;48.11;99441.75;5075299;28;20218;-55
2022/09/23 09:25:22;;;;;;;0.90;0.90;;;;;;;20.69;52.01;99452.41;5075403;28;20208;-55
2022/09/23 09:27:50;;;;;;;0.77;0.77;;;;;;;20.87;48.86;99458.19;5075296;28;20225;-55
2022/09/23 09:30:19;;;;;;;0.97;0.90;;;;;;;20.99;48.17;99456.84;5075333;28;20226;-56
2022/09/23 09:32:50;;;;;;;0.70;0.70;;;;;;;21.12;51.70;99456.31;5075017;28;20248;-55
2022/09/23 09:35:24;;;;;;;1.60;0.63;;;;;;;20.42;48.80;99449.19;5072622;28;20206;-56
2022/09/23 09:37:51;;;;;;;2.23;1.17;;;;;;;20.10;48.56;99452.63;5072164;28;20222;-55
2022/09/23 09:40:19;;;;;;;1.60;1.30;;;;;;;20.08;50.46;99465.78;5072050;28;20199;-56
2022/09/23 09:42:48;;;;;;;1.53;1.37;;;;;;;20.22;50.90;99469.50;5072001;28;20760;-61
2022/09/23 09:45:25;;;;;;;1.03;0.93;;;;;;;20.03;49.29;99469.84;5072012;28;20198;-55
2022/09/23 09:48:01;;;;;;;1.10;1.00;;;;;;;20.15;51.86;99465.13;5071766;28;20654;-56
2022/09/23 09:50:44;;;;;;;1.30;1.10;;;;;;;20.33;49.32;99471.78;5071893;28;20233;-55
2022/09/23 09:53:23;;;;;;;0.87;0.83;;;;;;;20.14;49.24;99472.09;5071650;28;20239;-55
2022/09/23 09:56:00;;;;;;;1.00;0.80;;;;;;;19.91;50.55;99461.56;5071862;28;20273;-56
2022/09/23 09:58:30;;;;;;;0.70;0.70;;;;;;;19.89;50.44;99466.91;5071610;28;20271;-56
2022/09/23 10:01:00;;;;;;;0.93;0.73;;;;;;;19.74;51.56;99470.31;5071729;28;20291;-56
2022/09/23 10:03:41;;;;;;;1.10;0.87;;;;;;;19.77;51.43;99470.78;5071385;28;20221;-55
2022/09/23 10:06:21;;;;;;;1.90;1.20;;;;;;;19.61;51.15;99473.34;5071529;28;20193;-55
2022/09/23 10:09:09;;;;;;;0.63;0.63;;;;;;;19.46;50.43;99478.34;5071423;28;20255;-56
2022/09/23 10:11:37;;;;;;;0.73;0.70;;;;;;;19.35;53.02;99471.66;5071445;28;20247;-55
2022/09/23 10:14:06;;;;;;;1.27;1.17;;;;;;;18.90;50.92;99467.59;5071306;28;20222;-56
2022/09/23 10:16:34;;;;;;;1.20;1.00;;;;;;;18.82;52.38;99471.91;5071338;28;20208;-55
2022/09/23 10:19:02;;;;;;;1.30;1.00;;;;;;;19.23;54.91;99463.34;5071130;28;20216;-56
2022/09/23 10:21:34;;;;;;;1.20;1.03;;;;;;;19.37;51.40;99464.53;5071089;28;20218;-55
2022/09/23 10:24:04;;;;;;;0.83;0.83;;;;;;;19.93;51.21;99464.00;5071245;28;20277;-55
2022/09/23 10:26:35;;;;;;;0.77;0.77;;;;;;;20.50;51.30;99451.75;5071218;28;20683;-55
2022/09/23 10:29:04;;;;;;;1.20;1.10;;;;;;;20.51;49.89;99457.78;5071132;28;20250;-55
2022/09/23 10:31:33;;;;;;;1.17;0.80;;;;;;;20.80;50.37;99452.88;5070967;28;20235;-62
2022/09/23 10:34:03;;;;;;;1.23;1.00;;;;;;;20.72;49.37;99457.28;5071105;28;20224;-62
2022/09/23 10:36:32;;;;;;;1.37;1.07;;;;;;;20.98;49.28;99444.84;5070982;28;20210;-61
2022/09/23 10:47:34;;;;;;;0.97;0.87;;;;;;;21.03;46.29;99426.94;5070771;28;20263;-62
2022/09/23 10:50:22;;;;;;;0.83;0.83;;;;;;;21.26;47.31;99431.34;5070795;28;20230;-56
2022/09/23 10:53:04;;;;;;;0.90;0.90;;;;;;;21.40;47.86;99428.06;5070648;28;20231;-55
2022/09/23 10:55:47;;;;;;;1.20;0.80;;;;;;;21.58;47.05;99419.16;5070625;28;20258;-56
2022/09/23 10:58:41;;;;;;;0.90;0.67;;;;;;;21.69;45.69;99421.34;5070515;28;20227;-55
2022/09/23 11:01:21;;;;;;;0.70;0.70;;;;;;;21.78;44.13;99412.50;5070453;28;20201;-55
2022/09/23 11:04:12;;;;;;;0.70;0.70;;;;;;;21.77;45.81;99413.50;5070394;28;20511;-55
2022/09/23 11:06:56;;;;;;;0.47;0.47;;;;;;;21.67;42.81;99402.50;5070533;28;20213;-62
2022/09/23 11:09:33;;;;;;;0.50;0.50;;;;;;;21.85;42.22;99400.41;5070223;28;20210;-62
2022/09/23 11:12:10;;;;;;;1.03;0.90;;;;;;;21.98;42.78;99397.19;5070040;28;20332;-62
2022/09/23 11:15:01;;;;;;;0.53;0.53;;;;;;;22.21;43.88;99394.56;5070254;28;20207;-62
2022/09/23 11:18:06;;;;;;;0.53;0.53;;;;;;;22.29;44.28;99386.69;5070337;28;20233;-62
2022/09/23 11:20:45;;;;;;;1.10;0.80;;;;;;;22.31;43.39;99383.88;5041403;28;20198;-55
2022/09/23 11:23:40;;;;;;;1.03;0.90;;;;;;;22.59;43.90;99382.25;5069972;28;20237;-56
2022/09/23 11:26:18;;;;;;;1.33;1.03;;;;;;;22.07;42.55;99384.91;5070024;28;20213;-56
2022/09/23 11:29:10;;;;;;;0.87;0.83;;;;;;;21.97;46.11;99381.78;5069787;28;20225;-55
2022/09/23 11:31:46;;;;;;;1.70;0.80;;;;;;;22.26;48.50;99384.44;5069782;28;20712;-55
2022/09/23 11:34:47;;;;;;;3.47;0.73;;;;;;;22.45;44.60;99380.47;5069544;28;20222;-56
2022/09/23 11:37:18;;;;;;;1.10;0.93;;;;;;;22.41;43.26;99379.22;5069884;28;20232;-56
2022/09/23 11:39:53;;;;;;;0.70;0.60;;;;;;;22.28;41.58;99373.81;5069819;28;20201;-55
2022/09/23 11:42:23;;;;;;;0.77;0.63;;;;;;;21.97;41.54;99371.34;5069865;28;20225;-56
2022/09/23 11:44:56;;;;;;;1.07;0.80;;;;;;;21.63;44.22;99375.22;5069768;28;20210;-56
2022/09/23 11:47:29;;;;;;;0.67;0.67;;;;;;;21.20;43.17;99367.84;5069592;28;20222;-56
2022/09/23 11:50:02;;;;;;;0.70;0.63;;;;;;;21.15;44.67;99367.56;5069728;28;20230;-62
2022/09/23 11:52:35;;;;;;;1.33;0.83;;;;;;;20.84;45.43;99362.38;5069389;28;20239;-62
2022/09/23 11:55:12;;;;;;;1.47;1.10;;;;;;;20.55;44.67;99361.19;5069803;28;20682;-62
2022/09/23 11:57:43;;;;;;;0.67;0.67;;;;;;;20.17;43.20;99362.75;5069288;28;20228;-61
2022/09/23 12:00:18;;;;;;;1.00;0.73;;;;;;;20.12;45.87;99371.00;5069437;28;20206;-62
2022/09/23 12:02:59;;;;;;;0.70;0.70;;;;;;;20.18;45.75;99363.53;5069514;28;20221;-62
2022/09/23 12:05:30;;;;;;;1.40;0.90;;;;;;;19.79;46.65;99359.88;5069446;28;21103;-62